createdAt,value
2018-06-23T00:00:34.117Z,55.00
2018-06-23T00:03:00.111Z,54.97
2018-06-23T00:05:26.103Z,54.97
2018-06-23T00:07:52.087Z,54.91
2018-06-23T00:10:18.075Z,54.86
2018-06-23T00:12:44.060Z,54.89
2018-06-23T00:15:10.056Z,54.84
2018-06-23T00:17:36.048Z,54.83
2018-06-23T00:20:02.045Z,54.86
2018-06-23T00:22:28.026Z,54.83
2018-06-23T00:24:54.011Z,54.82
2018-06-23T00:27:20.005Z,54.80
2018-06-23T00:29:45.981Z,54.75
2018-06-23T00:32:11.962Z,54.77
2018-06-23T00:34:37.952Z,54.75
2018-06-23T00:37:03.930Z,54.74
2018-06-23T00:39:29.912Z,54.72
2018-06-23T00:41:55.904Z,54.72
2018-06-23T00:44:21.870Z,54.73
2018-06-23T00:46:47.850Z,54.71
2018-06-23T00:49:13.836Z,54.68
2018-06-23T00:51:39.821Z,54.72
2018-06-23T00:54:05.802Z,54.65
2018-06-23T00:56:31.782Z,54.66
2018-06-23T00:58:57.767Z,54.65
2018-06-23T01:01:23.754Z,54.61
2018-06-23T01:03:49.745Z,54.65
2018-06-23T01:06:15.738Z,54.56
2018-06-23T01:08:41.718Z,54.55
2018-06-23T01:11:07.706Z,54.58
2018-06-23T01:13:33.684Z,54.49
2018-06-23T01:15:59.668Z,54.54
2018-06-23T01:18:25.676Z,54.52
2018-06-23T01:20:51.668Z,54.47
2018-06-23T01:23:17.651Z,54.48
2018-06-23T01:25:43.668Z,54.45
2018-06-23T01:28:09.614Z,54.44
2018-06-23T01:30:35.595Z,54.42
2018-06-23T01:33:01.571Z,54.43
2018-06-23T01:35:27.552Z,54.39
2018-06-23T01:37:53.541Z,54.42
2018-06-23T01:40:19.523Z,54.33
2018-06-23T01:42:45.501Z,54.34
2018-06-23T01:45:11.487Z,54.36
2018-06-23T01:47:37.471Z,54.42
2018-06-23T01:50:03.447Z,54.31
2018-06-23T01:52:29.428Z,54.31
2018-06-23T01:54:55.409Z,54.28
2018-06-23T01:57:21.395Z,54.28
2018-06-23T01:59:47.375Z,54.21
2018-06-23T02:02:13.354Z,54.26
2018-06-23T02:04:39.329Z,54.29
2018-06-23T02:07:05.316Z,54.21
2018-06-23T02:09:31.290Z,54.15
2018-06-23T02:11:57.270Z,54.19
2018-06-23T02:14:23.248Z,54.16
2018-06-23T02:16:49.236Z,54.24
2018-06-23T02:19:15.231Z,54.10
2018-06-23T02:21:41.207Z,54.16
2018-06-23T02:24:07.192Z,54.11
2018-06-23T02:26:33.166Z,54.07
2018-06-23T02:28:59.145Z,54.12
2018-06-23T02:31:25.134Z,54.02
2018-06-23T02:33:51.111Z,54.08
2018-06-23T02:36:17.094Z,54.03
2018-06-23T02:38:43.074Z,54.03
2018-06-23T02:41:09.060Z,53.96
2018-06-23T02:43:35.038Z,53.98
2018-06-23T02:46:01.027Z,53.96
2018-06-23T02:48:27.021Z,53.96
2018-06-23T02:50:53.006Z,53.83
2018-06-23T02:53:19.003Z,53.87
2018-06-23T02:55:45.027Z,53.88
2018-06-23T02:58:11.017Z,53.86
2018-06-23T03:00:37.058Z,53.87
2018-06-23T03:03:03.045Z,53.87
2018-06-23T03:05:29.024Z,53.81
2018-06-23T03:07:55.002Z,53.80
2018-06-23T03:10:20.987Z,53.74
2018-06-23T03:12:46.966Z,53.83
2018-06-23T03:15:12.951Z,53.70
2018-06-23T03:17:38.931Z,53.73
2018-06-23T03:20:04.920Z,53.73
2018-06-23T03:22:30.890Z,53.72
2018-06-23T03:24:56.871Z,53.74
2018-06-23T03:27:22.855Z,53.62
2018-06-23T03:29:48.836Z,53.74
2018-06-23T03:32:14.825Z,53.70
2018-06-23T03:34:40.797Z,53.64
2018-06-23T03:37:06.778Z,53.76
2018-06-23T03:39:32.757Z,53.59
2018-06-23T03:41:58.733Z,53.52
2018-06-23T03:44:24.719Z,53.49
2018-06-23T03:46:50.703Z,53.27
2018-06-23T03:49:16.692Z,52.70
2018-06-23T03:51:42.675Z,52.26
2018-06-23T03:54:08.676Z,50.26
2018-06-23T03:56:34.658Z,49.34
2018-06-23T03:59:00.642Z,50.38
2018-06-23T04:01:26.629Z,50.41
2018-06-23T04:03:52.616Z,50.57
2018-06-23T04:06:18.599Z,50.42
2018-06-23T04:08:44.581Z,50.42
2018-06-23T04:11:10.567Z,50.62
2018-06-23T04:13:36.550Z,50.61
2018-06-23T04:16:02.534Z,50.62
2018-06-23T04:18:28.521Z,50.72
2018-06-23T04:20:54.498Z,50.56
2018-06-23T04:23:20.512Z,50.94
2018-06-23T04:25:46.468Z,48.57
2018-06-23T04:28:12.449Z,45.67
2018-06-23T04:30:38.441Z,44.57
2018-06-23T04:33:04.418Z,45.45
2018-06-23T04:35:30.399Z,47.14
2018-06-23T04:37:56.410Z,47.81
2018-06-23T04:40:22.395Z,47.95
2018-06-23T04:42:48.379Z,47.65
2018-06-23T04:45:14.365Z,47.97
2018-06-23T04:47:40.346Z,47.93
2018-06-23T04:50:06.383Z,48.01
2018-06-23T04:52:32.375Z,48.53
2018-06-23T04:54:58.370Z,48.18
2018-06-23T04:57:24.355Z,47.96
2018-06-23T04:59:50.340Z,48.11
2018-06-23T05:02:16.323Z,46.45
2018-06-23T05:04:42.311Z,47.78
2018-06-23T05:07:08.301Z,47.92
2018-06-23T05:09:34.291Z,47.92
2018-06-23T05:12:00.277Z,48.20
2018-06-23T05:14:26.265Z,48.44
2018-06-23T05:16:52.258Z,49.05
2018-06-23T05:19:18.241Z,48.99
2018-06-23T05:21:44.231Z,49.08
2018-06-23T05:24:10.215Z,49.12
2018-06-23T05:26:38.996Z,48.92
2018-06-23T05:29:04.978Z,49.21
2018-06-23T05:31:30.976Z,49.36
2018-06-23T05:33:56.954Z,49.45
2018-06-23T05:36:22.938Z,49.41
2018-06-23T05:38:48.931Z,49.18
2018-06-23T05:41:14.919Z,49.02
2018-06-23T05:43:40.907Z,48.56
2018-06-23T05:46:06.902Z,49.08
2018-06-23T05:48:32.892Z,48.76
2018-06-23T05:50:58.870Z,49.12
2018-06-23T05:53:24.943Z,48.27
2018-06-23T05:55:50.922Z,48.48
2018-06-23T05:58:17.238Z,48.90
2018-06-23T06:00:43.241Z,48.78
2018-06-23T06:03:09.206Z,48.54
2018-06-23T06:05:35.197Z,48.23
2018-06-23T06:08:01.195Z,49.05
2018-06-23T06:10:27.715Z,48.70
2018-06-23T06:13:01.939Z,48.98
2018-06-23T06:15:27.960Z,47.89
2018-06-23T06:17:53.890Z,47.89
2018-06-23T06:20:20.780Z,47.23
2018-06-23T06:22:48.632Z,47.49
2018-06-23T06:25:14.620Z,47.60
2018-06-23T06:27:40.599Z,46.43
2018-06-23T06:30:06.585Z,46.37
2018-06-23T06:32:32.579Z,46.11
2018-06-23T06:34:58.784Z,45.70
2018-06-23T06:37:25.501Z,45.90
2018-06-23T06:39:51.482Z,46.31
2018-06-23T06:42:19.283Z,46.31
2018-06-23T06:44:45.265Z,47.27
2018-06-23T06:47:11.250Z,47.05
2018-06-23T06:49:37.293Z,46.88
2018-06-23T06:52:03.275Z,47.33
2018-06-23T06:54:29.249Z,47.41
2018-06-23T06:56:55.258Z,47.58
2018-06-23T06:59:21.270Z,46.84
2018-06-23T07:01:47.294Z,46.89
2018-06-23T07:04:13.239Z,47.21
2018-06-23T07:06:39.224Z,47.67
2018-06-23T07:09:05.207Z,48.33
2018-06-23T07:11:31.186Z,47.99
2018-06-23T07:13:57.165Z,48.70
2018-06-23T07:16:23.181Z,49.21
2018-06-23T07:18:49.162Z,49.47
2018-06-23T07:21:15.142Z,48.08
2018-06-23T07:23:41.226Z,48.12
2018-06-23T07:26:07.116Z,47.74
2018-06-23T07:28:33.106Z,48.13
2018-06-23T07:30:59.132Z,48.09
2018-06-23T07:33:25.127Z,47.90
2018-06-23T07:35:51.133Z,47.93
2018-06-23T07:38:17.138Z,48.59
2018-06-23T07:40:43.157Z,48.93
2018-06-23T07:43:09.099Z,49.18
2018-06-23T07:45:35.092Z,49.55
2018-06-23T07:48:01.072Z,49.44
2018-06-23T07:50:27.054Z,49.06
2018-06-23T07:52:53.185Z,49.84
2018-06-23T07:55:19.152Z,48.45
2018-06-23T07:57:45.130Z,48.18
2018-06-23T08:00:11.220Z,47.64
2018-06-23T08:02:37.214Z,47.31
2018-06-23T08:05:03.200Z,47.61
2018-06-23T08:07:29.260Z,47.61
2018-06-23T08:09:55.259Z,47.52
2018-06-23T08:12:21.271Z,47.24
2018-06-23T08:14:47.261Z,47.30
2018-06-23T08:17:14.587Z,47.33
2018-06-23T08:19:40.654Z,47.36
2018-06-23T08:22:06.629Z,47.28
2018-06-23T08:24:32.657Z,47.18
2018-06-23T08:26:59.325Z,47.15
2018-06-23T08:29:25.294Z,47.63
2018-06-23T08:31:51.338Z,47.36
2018-06-23T08:34:17.980Z,47.20
2018-06-23T08:36:43.959Z,47.16
2018-06-23T08:39:14.315Z,47.11
2018-06-23T08:41:40.489Z,47.31
2018-06-23T08:44:06.302Z,47.39
2018-06-23T08:46:32.292Z,47.39
2018-06-23T08:48:58.300Z,47.21
2018-06-23T08:51:24.287Z,47.19
2018-06-23T08:53:50.289Z,47.89
2018-06-23T08:56:16.276Z,47.96
2018-06-23T08:58:42.256Z,48.17
2018-06-23T09:01:08.244Z,48.54
2018-06-23T09:03:34.216Z,48.38
2018-06-23T09:06:00.208Z,48.95
2018-06-23T09:08:26.300Z,48.40
2018-06-23T09:10:52.323Z,48.50
2018-06-23T09:13:18.351Z,48.69
2018-06-23T09:15:44.413Z,48.79
2018-06-23T09:18:10.463Z,49.24
2018-06-23T09:20:36.446Z,49.12
2018-06-23T09:23:02.440Z,49.23
2018-06-23T09:25:31.129Z,49.42
2018-06-23T09:27:57.092Z,49.08
2018-06-23T09:30:23.600Z,47.81
2018-06-23T09:32:49.725Z,47.80
2018-06-23T09:35:15.709Z,47.59
2018-06-23T09:37:41.706Z,47.76
2018-06-23T09:40:08.118Z,47.31
2018-06-23T09:42:34.089Z,47.32
2018-06-23T09:45:00.112Z,47.74
2018-06-23T09:47:26.061Z,47.16
2018-06-23T09:49:52.089Z,47.75
2018-06-23T09:52:18.169Z,48.30
2018-06-23T09:54:44.144Z,48.06
2018-06-23T09:57:10.137Z,46.68
2018-06-23T09:59:36.125Z,47.47
2018-06-23T10:02:02.117Z,48.25
2018-06-23T10:04:28.100Z,48.50
2018-06-23T10:06:54.129Z,47.98
2018-06-23T10:09:20.103Z,48.19
2018-06-23T10:11:46.098Z,48.13
2018-06-23T10:14:12.082Z,47.99
2018-06-23T10:16:38.063Z,48.17
2018-06-23T10:19:04.056Z,48.45
2018-06-23T10:21:30.052Z,47.10
2018-06-23T10:23:56.027Z,47.26
2018-06-23T10:26:22.026Z,47.37
2018-06-23T10:28:48.019Z,47.48
2018-06-23T10:31:14.017Z,47.50
2018-06-23T10:33:40.298Z,47.62
2018-06-23T10:36:06.288Z,47.37
2018-06-23T10:38:32.376Z,48.20
2018-06-23T10:40:58.378Z,47.82
2018-06-23T10:43:25.482Z,48.52
2018-06-23T10:45:51.577Z,49.41
2018-06-23T10:48:17.563Z,47.95
2018-06-23T10:50:43.553Z,47.74
2018-06-23T10:53:10.061Z,47.61
2018-06-23T10:55:36.032Z,47.45
2018-06-23T10:58:02.394Z,48.23
2018-06-23T11:00:28.372Z,49.23
2018-06-23T11:02:54.410Z,48.10
2018-06-23T11:05:21.323Z,48.41
2018-06-23T11:07:47.301Z,48.87
2018-06-23T11:10:13.468Z,48.55
2018-06-23T11:12:39.442Z,48.76
2018-06-23T11:15:05.724Z,48.93
2018-06-23T11:17:31.738Z,49.13
2018-06-23T11:19:57.727Z,49.06
2018-06-23T11:22:24.207Z,48.58
2018-06-23T11:24:50.193Z,48.75
2018-06-23T11:27:16.172Z,48.56
2018-06-23T11:29:46.651Z,48.42
2018-06-23T11:32:13.090Z,48.68
2018-06-23T11:34:39.005Z,48.46
2018-06-23T11:37:04.991Z,48.58
2018-06-23T11:39:30.981Z,48.37
2018-06-23T11:41:56.957Z,48.37
2018-06-23T11:44:22.949Z,48.70
2018-06-23T11:46:57.475Z,48.29
2018-06-23T11:49:23.456Z,48.03
2018-06-23T11:51:50.323Z,47.92
2018-06-23T11:54:16.315Z,49.08
2018-06-23T11:56:42.306Z,48.67
2018-06-23T11:59:08.335Z,48.86
2018-06-23T12:01:34.317Z,49.27
2018-06-23T12:04:00.309Z,48.47
2018-06-23T12:06:26.329Z,48.30
2018-06-23T12:08:52.315Z,48.80
2018-06-23T12:11:18.301Z,48.08
2018-06-23T12:13:44.327Z,48.43
2018-06-23T12:16:10.304Z,48.66
2018-06-23T12:18:36.279Z,48.91
2018-06-23T12:21:02.263Z,48.48
2018-06-23T12:23:28.677Z,48.30
2018-06-23T12:25:59.112Z,48.65
2018-06-23T12:28:25.084Z,49.09
2018-06-23T12:30:51.145Z,48.58
2018-06-23T12:33:17.421Z,48.27
2018-06-23T12:35:44.535Z,48.95
2018-06-23T12:38:10.490Z,48.41
2018-06-23T12:40:36.773Z,48.49
2018-06-23T12:43:02.760Z,49.26
2018-06-23T12:45:28.744Z,49.32
2018-06-23T12:47:54.730Z,48.55
2018-06-23T12:50:20.713Z,49.18
2018-06-23T12:52:46.708Z,49.34
2018-06-23T12:55:12.738Z,49.39
2018-06-23T12:57:38.675Z,48.88
2018-06-23T13:00:04.653Z,48.96
2018-06-23T13:02:30.637Z,49.37
2018-06-23T13:04:56.656Z,49.01
2018-06-23T13:07:22.605Z,48.89
2018-06-23T13:09:48.622Z,49.62
2018-06-23T13:12:14.614Z,48.91
2018-06-23T13:14:40.658Z,49.59
2018-06-23T13:17:06.636Z,49.05
2018-06-23T13:19:32.654Z,49.55
2018-06-23T13:21:58.642Z,49.12
2018-06-23T13:24:24.635Z,49.28
2018-06-23T13:26:50.639Z,49.68
2018-06-23T13:29:16.646Z,49.53
2018-06-23T13:31:42.617Z,49.22
2018-06-23T13:34:08.604Z,49.30
2018-06-23T13:36:34.602Z,49.45
2018-06-23T13:39:00.590Z,49.51
2018-06-23T13:41:26.582Z,49.44
2018-06-23T13:43:52.570Z,49.26
2018-06-23T13:46:18.556Z,49.32
2018-06-23T13:48:44.549Z,49.09
2018-06-23T13:51:10.529Z,49.58
2018-06-23T13:53:36.529Z,49.36
2018-06-23T13:56:02.522Z,49.05
2018-06-23T13:58:28.561Z,49.49
2018-06-23T14:00:54.511Z,49.42
2018-06-23T14:03:20.565Z,49.68
2018-06-23T14:05:46.480Z,49.21
2018-06-23T14:08:12.470Z,49.05
2018-06-23T14:10:38.460Z,49.09
2018-06-23T14:13:04.442Z,49.48
2018-06-23T14:15:30.429Z,49.28
2018-06-23T14:17:56.438Z,49.53
2018-06-23T14:20:22.415Z,49.28
2018-06-23T14:22:48.399Z,49.46
2018-06-23T14:25:14.397Z,49.66
2018-06-23T14:27:40.394Z,49.18
2018-06-23T14:30:06.370Z,49.20
2018-06-23T14:32:32.355Z,49.12
2018-06-23T14:34:58.378Z,49.60
2018-06-23T14:37:24.351Z,48.78
2018-06-23T14:39:50.336Z,49.14
2018-06-23T14:42:16.321Z,49.31
2018-06-23T14:44:42.305Z,48.15
2018-06-23T14:47:08.298Z,48.35
2018-06-23T14:49:34.272Z,49.16
2018-06-23T14:52:00.254Z,48.98
2018-06-23T14:54:26.227Z,48.18
2018-06-23T14:56:52.210Z,49.18
2018-06-23T14:59:18.212Z,49.05
2018-06-23T15:01:44.191Z,48.50
2018-06-23T15:04:10.166Z,48.15
2018-06-23T15:06:36.147Z,48.15
2018-06-23T15:09:02.147Z,48.81
2018-06-23T15:11:28.124Z,48.42
2018-06-23T15:13:54.120Z,47.71
2018-06-23T15:16:20.106Z,47.53
2018-06-23T15:18:46.090Z,48.71
2018-06-23T15:21:12.082Z,47.90
2018-06-23T15:23:38.074Z,48.28
2018-06-23T15:26:04.056Z,48.80
2018-06-23T15:28:30.046Z,48.74
2018-06-23T15:30:56.026Z,47.71
2018-06-23T15:33:22.047Z,48.15
2018-06-23T15:35:48.043Z,48.64
2018-06-23T15:38:14.071Z,47.69
2018-06-23T15:40:40.072Z,48.91
2018-06-23T15:43:06.043Z,47.30
2018-06-23T15:45:32.028Z,47.53
2018-06-23T15:47:58.016Z,48.22
2018-06-23T15:50:24.001Z,47.63
2018-06-23T15:52:49.986Z,47.70
2018-06-23T15:55:15.976Z,48.12
2018-06-23T15:57:41.956Z,47.72
2018-06-23T16:00:07.944Z,48.64
2018-06-23T16:02:34.005Z,47.83
2018-06-23T16:04:59.928Z,48.36
2018-06-23T16:07:25.922Z,48.00
2018-06-23T16:09:51.976Z,48.38
2018-06-23T16:12:17.961Z,47.74
2018-06-23T16:14:43.989Z,48.02
2018-06-23T16:17:09.974Z,47.74
2018-06-23T16:19:35.962Z,47.83
2018-06-23T16:22:01.950Z,47.76
2018-06-23T16:24:27.932Z,47.96
2018-06-23T16:26:53.914Z,48.07
2018-06-23T16:29:19.907Z,47.87
2018-06-23T16:31:45.899Z,48.07
2018-06-23T16:34:11.929Z,48.37
2018-06-23T16:36:37.923Z,48.42
2018-06-23T16:39:03.911Z,48.20
2018-06-23T16:41:29.896Z,48.20
2018-06-23T16:43:55.886Z,48.72
2018-06-23T16:46:21.868Z,48.68
2018-06-23T16:48:47.859Z,49.11
2018-06-23T16:51:13.856Z,49.21
2018-06-23T16:53:44.045Z,48.95
2018-06-23T16:56:11.117Z,49.32
2018-06-23T16:58:37.847Z,49.39
2018-06-23T17:01:03.834Z,49.51
2018-06-23T17:03:29.887Z,49.56
2018-06-23T17:05:55.828Z,49.55
2018-06-23T17:08:21.921Z,49.62
2018-06-23T17:10:47.956Z,49.58
2018-06-23T17:13:14.308Z,49.69
2018-06-23T17:15:40.286Z,49.60
2018-06-23T17:18:06.316Z,49.62
2018-06-23T17:20:32.306Z,49.22
2018-06-23T17:22:58.282Z,49.48
2018-06-23T17:25:24.271Z,49.43
2018-06-23T17:27:50.258Z,49.45
2018-06-23T17:30:16.251Z,48.71
2018-06-23T17:32:42.472Z,49.02
2018-06-23T17:35:08.413Z,49.28
2018-06-23T17:37:34.402Z,49.51
2018-06-23T17:40:00.388Z,49.36
2018-06-23T17:42:26.369Z,49.51
2018-06-23T17:44:52.619Z,49.19
2018-06-23T17:47:18.745Z,49.43
2018-06-23T17:49:44.724Z,49.41
2018-06-23T17:52:10.713Z,49.48
2018-06-23T17:54:36.699Z,49.37
2018-06-23T17:57:02.744Z,49.34
2018-06-23T17:59:28.677Z,49.38
2018-06-23T18:01:54.666Z,49.23
2018-06-23T18:04:20.700Z,49.14
2018-06-23T18:06:46.725Z,48.55
2018-06-23T18:09:12.706Z,48.64
2018-06-23T18:11:38.685Z,48.62
2018-06-23T18:14:10.548Z,48.77
2018-06-23T18:16:36.519Z,48.52
2018-06-23T18:19:02.509Z,47.90
2018-06-23T18:21:28.494Z,48.30
2018-06-23T18:23:54.544Z,48.81
2018-06-23T18:26:20.525Z,48.88
2018-06-23T18:28:46.508Z,48.76
2018-06-23T18:31:12.495Z,48.71
2018-06-23T18:33:38.620Z,48.59
2018-06-23T18:36:04.613Z,48.78
2018-06-23T18:38:30.599Z,48.91
2018-06-23T18:40:56.589Z,49.21
2018-06-23T18:43:22.571Z,49.07
2018-06-23T18:45:48.559Z,49.04
2018-06-23T18:48:14.577Z,49.14
2018-06-23T18:50:40.621Z,49.21
2018-06-23T18:53:06.602Z,49.20
2018-06-23T18:55:32.587Z,49.30
2018-06-23T18:57:58.571Z,49.39
2018-06-23T19:00:24.549Z,49.36
2018-06-23T19:02:50.567Z,49.35
2018-06-23T19:05:16.676Z,49.14
2018-06-23T19:07:42.625Z,49.37
2018-06-23T19:10:08.607Z,49.42
2018-06-23T19:12:34.627Z,49.26
2018-06-23T19:15:00.570Z,49.49
2018-06-23T19:17:26.549Z,49.32
2018-06-23T19:19:52.527Z,49.50
2018-06-23T19:22:18.516Z,49.55
2018-06-23T19:24:44.546Z,49.37
2018-06-23T19:27:10.570Z,49.64
2018-06-23T19:29:36.628Z,49.39
2018-06-23T19:32:02.606Z,49.49
2018-06-23T19:34:28.589Z,49.56
2018-06-23T19:36:54.579Z,49.49
2018-06-23T19:39:20.555Z,48.90
2018-06-23T19:41:46.687Z,49.26
2018-06-23T19:44:12.666Z,49.25
2018-06-23T19:46:38.709Z,49.62
2018-06-23T19:49:04.691Z,49.37
2018-06-23T19:51:30.678Z,49.67
2018-06-23T19:53:56.797Z,49.70
2018-06-23T19:56:22.641Z,49.72
2018-06-23T19:58:48.621Z,49.32
2018-06-23T20:01:14.632Z,49.71
2018-06-23T20:03:40.782Z,49.72
2018-06-23T20:06:07.110Z,49.78
2018-06-23T20:08:33.095Z,49.84
2018-06-23T20:10:59.079Z,49.84
2018-06-23T20:13:25.090Z,49.91
2018-06-23T20:15:51.076Z,49.88
2018-06-23T20:18:17.057Z,49.92
2018-06-23T20:20:43.165Z,49.57
2018-06-23T20:23:09.137Z,49.43
2018-06-23T20:25:35.118Z,49.44
2018-06-23T20:28:01.101Z,49.79
2018-06-23T20:30:27.102Z,49.86
2018-06-23T20:32:53.083Z,49.87
2018-06-23T20:35:19.077Z,49.68
2018-06-23T20:37:45.064Z,49.85
2018-06-23T20:40:11.047Z,49.46
2018-06-23T20:42:37.022Z,49.71
2018-06-23T20:45:03.016Z,49.86
2018-06-23T20:47:29.088Z,49.35
2018-06-23T20:49:55.019Z,49.30
2018-06-23T20:52:21.002Z,49.77
2018-06-23T20:54:46.986Z,49.90
2018-06-23T20:57:12.981Z,49.87
2018-06-23T20:59:38.960Z,49.86
2018-06-23T21:02:04.954Z,49.33
2018-06-23T21:04:30.939Z,49.19
2018-06-23T21:06:56.916Z,49.83
2018-06-23T21:09:22.902Z,49.76
2018-06-23T21:11:48.884Z,49.84
2018-06-23T21:14:14.880Z,49.90
2018-06-23T21:16:40.870Z,49.79
2018-06-23T21:19:06.850Z,49.61
2018-06-23T21:21:32.843Z,49.79
2018-06-23T21:23:58.909Z,49.09
2018-06-23T21:26:24.901Z,49.84
2018-06-23T21:28:50.890Z,49.46
2018-06-23T21:31:16.877Z,49.71
2018-06-23T21:33:42.856Z,49.82
2018-06-23T21:36:08.840Z,49.91
2018-06-23T21:38:34.824Z,49.90
2018-06-23T21:41:01.074Z,49.96
2018-06-23T21:43:27.017Z,49.94
2018-06-23T21:45:52.998Z,49.92
2018-06-23T21:48:18.974Z,49.95
2018-06-23T21:50:44.971Z,49.40
2018-06-23T21:53:10.975Z,49.98
2018-06-23T21:55:36.931Z,49.93
2018-06-23T21:58:02.948Z,50.01
2018-06-23T22:00:28.980Z,49.80
2018-06-23T22:02:57.731Z,49.95
2018-06-23T22:05:23.690Z,50.00
2018-06-23T22:07:49.676Z,50.07
2018-06-23T22:10:15.650Z,50.00
2018-06-23T22:12:41.636Z,50.00
2018-06-23T22:15:07.617Z,50.06
2018-06-23T22:17:33.638Z,50.11
2018-06-23T22:19:59.644Z,50.12
2018-06-23T22:22:25.609Z,50.10
2018-06-23T22:24:51.584Z,50.07
2018-06-23T22:27:17.571Z,49.66
2018-06-23T22:29:43.563Z,50.10
2018-06-23T22:32:09.558Z,50.07
2018-06-23T22:34:35.573Z,49.98
2018-06-23T22:37:01.530Z,50.06
2018-06-23T22:39:27.508Z,50.00
2018-06-23T22:41:53.487Z,50.07
2018-06-23T22:44:19.494Z,50.09
2018-06-23T22:46:45.478Z,50.07
2018-06-23T22:49:11.455Z,50.12
2018-06-23T22:51:37.437Z,50.05
2018-06-23T22:54:03.425Z,49.90
2018-06-23T22:56:29.409Z,50.03
2018-06-23T22:58:55.393Z,50.04
2018-06-23T23:01:21.381Z,50.02
2018-06-23T23:03:47.366Z,50.04
2018-06-23T23:06:13.342Z,50.00
2018-06-23T23:08:39.328Z,49.25
2018-06-23T23:11:05.308Z,49.99
2018-06-23T23:13:31.294Z,50.05
2018-06-23T23:15:57.288Z,50.07
2018-06-23T23:18:23.255Z,50.01
2018-06-23T23:20:49.242Z,49.96
2018-06-23T23:23:15.223Z,50.00
2018-06-23T23:25:41.204Z,49.97
2018-06-23T23:28:07.181Z,50.05
2018-06-23T23:30:33.163Z,50.02
2018-06-23T23:32:59.147Z,50.03
2018-06-23T23:35:25.133Z,49.92
2018-06-23T23:37:51.125Z,50.01
2018-06-23T23:40:17.101Z,49.94
2018-06-23T23:42:43.088Z,49.98
2018-06-23T23:45:09.068Z,49.95
2018-06-23T23:47:35.046Z,49.90
2018-06-23T23:50:01.038Z,49.85
2018-06-23T23:52:27.023Z,49.97
2018-06-23T23:54:52.998Z,49.93
2018-06-23T23:57:18.983Z,49.04
2018-06-23T23:59:44.968Z,49.92
